sensor_id;sensor_type;location;lat;lon;timestamp;pressure;altitude;pressure_sealevel;temperature;humidity
14273;BME280;7220;49.450;11.052;2023-01-26T00:02:55;98763.69;;;0.68;100.00
14273;BME280;7220;49.450;11.052;2023-01-26T00:06:55;98761.09;;;0.67;100.00
14273;BME280;7220;49.450;11.052;2023-01-26T00:10:55;98757.53;;;0.72;100.00
14273;BME280;7220;49.450;11.052;2023-01-26T00:14:56;98752.31;;;0.72;100.00
14273;BME280;7220;49.450;11.052;2023-01-26T00:18:56;98742.75;;;0.73;100.00
14273;BME280;7220;49.450;11.052;2023-01-26T00:22:56;98735.75;;;0.69;100.00
14273;BME280;7220;49.450;11.052;2023-01-26T00:26:56;98734.00;;;0.75;100.00
14273;BME280;7220;49.450;11.052;2023-01-26T00:31:04;98725.28;;;0.80;100.00
14273;BME280;7220;49.450;11.052;2023-01-26T00:35:05;98716.56;;;0.77;100.00
14273;BME280;7220;49.450;11.052;2023-01-26T00:39:05;98703.50;;;0.71;100.00
14273;BME280;7220;49.450;11.052;2023-01-26T00:43:06;98693.91;;;0.72;100.00
14273;BME280;7220;49.450;11.052;2023-01-26T00:47:08;98700.94;;;0.60;100.00
14273;BME280;7220;49.450;11.052;2023-01-26T00:51:08;98690.53;;;0.53;100.00
14273;BME280;7220;49.450;11.052;2023-01-26T00:55:08;98687.09;;;0.44;100.00
14273;BME280;7220;49.450;11.052;2023-01-26T00:59:09;98682.69;;;0.48;100.00
14273;BME280;7220;49.450;11.052;2023-01-26T01:03:09;98679.19;;;0.54;100.00
14273;BME280;7220;49.450;11.052;2023-01-26T01:07:10;98662.59;;;0.61;100.00
14273;BME280;7220;49.450;11.052;2023-01-26T01:11:11;98661.66;;;0.68;100.00
14273;BME280;7220;49.450;11.052;2023-01-26T01:15:12;98663.47;;;0.60;100.00
14273;BME280;7220;49.450;11.052;2023-01-26T01:19:16;98662.56;;;0.62;100.00
14273;BME280;7220;49.450;11.052;2023-01-26T01:23:17;98646.03;;;0.62;100.00
14273;BME280;7220;49.450;11.052;2023-01-26T01:27:18;98639.03;;;0.61;100.00
14273;BME280;7220;49.450;11.052;2023-01-26T01:31:18;98647.88;;;0.41;100.00
14273;BME280;7220;49.450;11.052;2023-01-26T01:35:18;98656.63;;;0.33;100.00
14273;BME280;7220;49.450;11.052;2023-01-26T01:39:18;98636.59;;;0.31;100.00
14273;BME280;7220;49.450;11.052;2023-01-26T01:43:20;98643.53;;;0.34;100.00
14273;BME280;7220;49.450;11.052;2023-01-26T01:47:23;98638.38;;;0.23;100.00
14273;BME280;7220;49.450;11.052;2023-01-26T01:51:37;98643.59;;;0.20;100.00
14273;BME280;7220;49.450;11.052;2023-01-26T01:55:38;98643.66;;;0.15;100.00
14273;BME280;7220;49.450;11.052;2023-01-26T01:59:41;98636.69;;;0.16;100.00
14273;BME280;7220;49.450;11.052;2023-01-26T02:03:44;98636.66;;;0.18;100.00
14273;BME280;7220;49.450;11.052;2023-01-26T02:07:47;98635.81;;;0.12;100.00
14273;BME280;7220;49.450;11.052;2023-01-26T02:11:49;98634.06;;;0.19;100.00
14273;BME280;7220;49.450;11.052;2023-01-26T02:15:50;98626.25;;;0.14;100.00
14273;BME280;7220;49.450;11.052;2023-01-26T02:20:39;98631.44;;;0.16;100.00
14273;BME280;7220;49.450;11.052;2023-01-26T02:24:28;98627.06;;;0.20;100.00
14273;BME280;7220;49.450;11.052;2023-01-26T02:28:31;98628.81;;;0.18;100.00
14273;BME280;7220;49.450;11.052;2023-01-26T02:32:32;98627.94;;;0.19;100.00
14273;BME280;7220;49.450;11.052;2023-01-26T02:36:33;98621.84;;;0.23;100.00
14273;BME280;7220;49.450;11.052;2023-01-26T02:40:42;98615.72;;;0.25;100.00
14273;BME280;7220;49.450;11.052;2023-01-26T02:44:43;98606.13;;;0.29;100.00
14273;BME280;7220;49.450;11.052;2023-01-26T02:48:44;98607.84;;;0.30;100.00
14273;BME280;7220;49.450;11.052;2023-01-26T02:53:03;98602.59;;;0.35;100.00
14273;BME280;7220;49.450;11.052;2023-01-26T02:57:03;98597.31;;;0.42;100.00
14273;BME280;7220;49.450;11.052;2023-01-26T03:01:03;98598.13;;;0.51;100.00
14273;BME280;7220;49.450;11.052;2023-01-26T03:05:04;98582.38;;;0.57;100.00
14273;BME280;7220;49.450;11.052;2023-01-26T03:09:04;98578.09;;;0.51;100.00
14273;BME280;7220;49.450;11.052;2023-01-26T03:13:04;98592.00;;;0.56;100.00
14273;BME280;7220;49.450;11.052;2023-01-26T03:17:04;98577.16;;;0.57;100.00
14273;BME280;7220;49.450;11.052;2023-01-26T03:21:10;98574.50;;;0.61;100.00
14273;BME280;7220;49.450;11.052;2023-01-26T03:25:29;98578.88;;;0.64;100.00
14273;BME280;7220;49.450;11.052;2023-01-26T03:29:48;98571.91;;;0.60;100.00
14273;BME280;7220;49.450;11.052;2023-01-26T03:33:48;98569.31;;;0.60;100.00
14273;BME280;7220;49.450;11.052;2023-01-26T03:37:48;98557.09;;;0.62;100.00
14273;BME280;7220;49.450;11.052;2023-01-26T03:41:53;98569.28;;;0.63;100.00
14273;BME280;7220;49.450;11.052;2023-01-26T03:46:12;98554.47;;;0.60;100.00
14273;BME280;7220;49.450;11.052;2023-01-26T03:50:31;98554.47;;;0.62;100.00
14273;BME280;7220;49.450;11.052;2023-01-26T03:54:49;98550.97;;;0.65;100.00
14273;BME280;7220;49.450;11.052;2023-01-26T03:59:08;98555.34;;;0.64;100.00
14273;BME280;7220;49.450;11.052;2023-01-26T04:03:10;98559.66;;;0.67;100.00
14273;BME280;7220;49.450;11.052;2023-01-26T04:07:28;98550.94;;;0.66;100.00
14273;BME280;7220;49.450;11.052;2023-01-26T04:11:48;98551.78;;;0.71;100.00
14273;BME280;7220;49.450;11.052;2023-01-26T04:15:48;98562.34;;;0.54;100.00
14273;BME280;7220;49.450;11.052;2023-01-26T04:20:07;98550.19;;;0.49;100.00
14273;BME280;7220;49.450;11.052;2023-01-26T04:24:26;98555.44;;;0.50;100.00
14273;BME280;7220;49.450;11.052;2023-01-26T04:28:26;98554.56;;;0.45;100.00
14273;BME280;7220;49.450;11.052;2023-01-26T04:32:27;98559.81;;;0.43;100.00
14273;BME280;7220;49.450;11.052;2023-01-26T04:36:27;98558.97;;;0.40;100.00
14273;BME280;7220;49.450;11.052;2023-01-26T04:40:28;98552.91;;;0.36;100.00
14273;BME280;7220;49.450;11.052;2023-01-26T04:44:28;98552.91;;;0.36;100.00
14273;BME280;7220;49.450;11.052;2023-01-26T04:48:29;98557.28;;;0.34;100.00
14273;BME280;7220;49.450;11.052;2023-01-26T04:52:29;98547.69;;;0.35;100.00
14273;BME280;7220;49.450;11.052;2023-01-26T04:56:33;98550.28;;;0.39;100.00
14273;BME280;7220;49.450;11.052;2023-01-26T05:00:33;98538.94;;;0.42;100.00
14273;BME280;7220;49.450;11.052;2023-01-26T05:04:33;98538.91;;;0.46;100.00
14273;BME280;7220;49.450;11.052;2023-01-26T05:08:35;98541.50;;;0.48;100.00
14273;BME280;7220;49.450;11.052;2023-01-26T05:12:36;98532.78;;;0.47;100.00
14273;BME280;7220;49.450;11.052;2023-01-26T05:16:37;98546.75;;;0.46;100.00
14273;BME280;7220;49.450;11.052;2023-01-26T05:20:37;98551.94;;;0.50;100.00
14273;BME280;7220;49.450;11.052;2023-01-26T05:24:38;98550.19;;;0.52;100.00
14273;BME280;7220;49.450;11.052;2023-01-26T05:28:38;98548.41;;;0.52;100.00
14273;BME280;7220;49.450;11.052;2023-01-26T05:32:38;98551.97;;;0.46;100.00
14273;BME280;7220;49.450;11.052;2023-01-26T05:36:38;98550.25;;;0.41;100.00
14273;BME280;7220;49.450;11.052;2023-01-26T05:40:39;98562.44;;;0.40;100.00
14273;BME280;7220;49.450;11.052;2023-01-26T05:44:39;98557.22;;;0.40;100.00
14273;BME280;7220;49.450;11.052;2023-01-26T05:48:39;98554.69;;;0.33;100.00
14273;BME280;7220;49.450;11.052;2023-01-26T05:52:41;98560.78;;;0.31;100.00
14273;BME280;7220;49.450;11.052;2023-01-26T05:56:42;98560.75;;;0.36;100.00
14273;BME280;7220;49.450;11.052;2023-01-26T06:00:43;98553.72;;;0.41;100.00
14273;BME280;7220;49.450;11.052;2023-01-26T06:04:43;98555.44;;;0.47;100.00
14273;BME280;7220;49.450;11.052;2023-01-26T06:08:44;98552.84;;;0.42;100.00
14273;BME280;7220;49.450;11.052;2023-01-26T06:12:44;98545.88;;;0.44;100.00
14273;BME280;7220;49.450;11.052;2023-01-26T06:16:44;98547.56;;;0.49;100.00
14273;BME280;7220;49.450;11.052;2023-01-26T06:20:45;98541.50;;;0.45;100.00
14273;BME280;7220;49.450;11.052;2023-01-26T06:24:45;98544.97;;;0.47;100.00
14273;BME280;7220;49.450;11.052;2023-01-26T06:28:46;98559.84;;;0.39;100.00
14273;BME280;7220;49.450;11.052;2023-01-26T06:32:46;98566.84;;;0.35;100.00
14273;BME280;7220;49.450;11.052;2023-01-26T06:36:46;98555.53;;;0.33;100.00
14273;BME280;7220;49.450;11.052;2023-01-26T06:40:47;98549.47;;;0.31;100.00
14273;BME280;7220;49.450;11.052;2023-01-26T06:44:47;98554.69;;;0.31;100.00
14273;BME280;7220;49.450;11.052;2023-01-26T06:48:47;98553.88;;;0.20;100.00
14273;BME280;7220;49.450;11.052;2023-01-26T06:52:54;98557.34;;;0.26;100.00
14273;BME280;7220;49.450;11.052;2023-01-26T06:56:54;98552.13;;;0.23;100.00
14273;BME280;7220;49.450;11.052;2023-01-26T07:00:55;98552.97;;;0.25;100.00
14273;BME280;7220;49.450;11.052;2023-01-26T07:04:56;98541.69;;;0.19;100.00
14273;BME280;7220;49.450;11.052;2023-01-26T07:08:56;98550.41;;;0.24;100.00
14273;BME280;7220;49.450;11.052;2023-01-26T07:12:56;98547.75;;;0.27;100.00
14273;BME280;7220;49.450;11.052;2023-01-26T07:16:57;98553.91;;;0.18;100.00
14273;BME280;7220;49.450;11.052;2023-01-26T07:21:05;98551.22;;;0.29;100.00
14273;BME280;7220;49.450;11.052;2023-01-26T07:25:06;98547.69;;;0.36;100.00
14273;BME280;7220;49.450;11.052;2023-01-26T07:29:06;98553.75;;;0.37;100.00
14273;BME280;7220;49.450;11.052;2023-01-26T07:33:06;98558.16;;;0.35;100.00
14273;BME280;7220;49.450;11.052;2023-01-26T07:37:07;98540.72;;;0.34;100.00
14273;BME280;7220;49.450;11.052;2023-01-26T07:41:10;98555.53;;;0.33;100.00
14273;BME280;7220;49.450;11.052;2023-01-26T07:45:10;98551.25;;;0.27;100.00
14273;BME280;7220;49.450;11.052;2023-01-26T07:49:11;98546.03;;;0.23;100.00
14273;BME280;7220;49.450;11.052;2023-01-26T07:53:12;98539.94;;;0.21;100.00
14273;BME280;7220;49.450;11.052;2023-01-26T07:57:14;98532.09;;;0.21;100.00
14273;BME280;7220;49.450;11.052;2023-01-26T08:01:14;98538.16;;;0.26;100.00
14273;BME280;7220;49.450;11.052;2023-01-26T08:05:14;98542.53;;;0.22;100.00
14273;BME280;7220;49.450;11.052;2023-01-26T08:09:15;98539.78;;;0.42;100.00
14273;BME280;7220;49.450;11.052;2023-01-26T08:13:15;98543.25;;;0.47;100.00
14273;BME280;7220;49.450;11.052;2023-01-26T08:17:16;98532.06;;;0.27;100.00
14273;BME280;7220;49.450;11.052;2023-01-26T08:21:17;98544.22;;;0.33;100.00
14273;BME280;7220;49.450;11.052;2023-01-26T08:25:18;98548.50;;;0.44;100.00
14273;BME280;7220;49.450;11.052;2023-01-26T08:29:18;98539.75;;;0.50;100.00
14273;BME280;7220;49.450;11.052;2023-01-26T08:33:20;98537.06;;;0.56;100.00
14273;BME280;7220;49.450;11.052;2023-01-26T08:37:20;98523.97;;;0.58;100.00
14273;BME280;7220;49.450;11.052;2023-01-26T08:41:20;98530.00;;;0.66;100.00
14273;BME280;7220;49.450;11.052;2023-01-26T08:45:21;98537.84;;;0.69;100.00
14273;BME280;7220;49.450;11.052;2023-01-26T08:49:21;98528.25;;;0.71;100.00
14273;BME280;7220;49.450;11.052;2023-01-26T08:53:22;98528.22;;;0.73;100.00
14273;BME280;7220;49.450;11.052;2023-01-26T08:57:22;98535.22;;;0.71;100.00
14273;BME280;7220;49.450;11.052;2023-01-26T09:01:23;98531.69;;;0.76;100.00
14273;BME280;7220;49.450;11.052;2023-01-26T09:05:23;98527.25;;;0.83;100.00
14273;BME280;7220;49.450;11.052;2023-01-26T09:09:24;98526.25;;;0.97;100.00
14273;BME280;7220;49.450;11.052;2023-01-26T09:13:24;98525.31;;;1.01;100.00
14273;BME280;7220;49.450;11.052;2023-01-26T09:17:24;98525.28;;;1.05;100.00
14273;BME280;7220;49.450;11.052;2023-01-26T09:21:25;98527.06;;;1.03;100.00
14273;BME280;7220;49.450;11.052;2023-01-26T09:25:25;98548.81;;;1.12;100.00
14273;BME280;7220;49.450;11.052;2023-01-26T09:29:25;98547.94;;;1.09;100.00
14273;BME280;7220;49.450;11.052;2023-01-26T09:33:26;98537.56;;;1.00;100.00
14273;BME280;7220;49.450;11.052;2023-01-26T09:37:26;98546.22;;;1.05;100.00
14273;BME280;7220;49.450;11.052;2023-01-26T09:41:48;98557.59;;;1.03;100.00
14273;BME280;7220;49.450;11.052;2023-01-26T09:46:19;98548.88;;;1.01;100.00
14273;BME280;7220;49.450;11.052;2023-01-26T09:50:29;98557.81;;;0.80;100.00
14273;BME280;7220;49.450;11.052;2023-01-26T09:54:44;98549.06;;;0.82;100.00
14273;BME280;7220;49.450;11.052;2023-01-26T09:58:51;98553.41;;;0.85;100.00
14273;BME280;7220;49.450;11.052;2023-01-26T10:03:25;98549.03;;;0.85;100.00
14273;BME280;7220;49.450;11.052;2023-01-26T10:07:30;98535.94;;;0.85;100.00
14273;BME280;7220;49.450;11.052;2023-01-26T10:11:35;98544.69;;;0.83;100.00
14273;BME280;7220;49.450;11.052;2023-01-26T10:15:38;98550.81;;;0.82;100.00
14273;BME280;7220;49.450;11.052;2023-01-26T10:19:44;98549.84;;;0.92;100.00
14273;BME280;7220;49.450;11.052;2023-01-26T10:23:48;98545.41;;;1.00;100.00
14273;BME280;7220;49.450;11.052;2023-01-26T10:27:48;98545.50;;;0.91;100.00
14273;BME280;7220;49.450;11.052;2023-01-26T10:31:49;98539.38;;;0.95;100.00
14273;BME280;7220;49.450;11.052;2023-01-26T10:35:49;98541.88;;;1.04;100.00
14273;BME280;7220;49.450;11.052;2023-01-26T10:39:58;98541.00;;;1.04;100.00
14273;BME280;7220;49.450;11.052;2023-01-26T10:44:19;98535.88;;;0.96;100.00
14273;BME280;7220;49.450;11.052;2023-01-26T10:48:23;98531.56;;;0.90;100.00
14273;BME280;7220;49.450;11.052;2023-01-26T10:52:25;98530.66;;;0.93;100.00
14273;BME280;7220;49.450;11.052;2023-01-26T10:56:25;98529.88;;;0.82;100.00
14273;BME280;7220;49.450;11.052;2023-01-26T11:00:28;98520.41;;;0.68;100.00
14273;BME280;7220;49.450;11.052;2023-01-26T11:04:30;98509.94;;;0.68;100.00
14273;BME280;7220;49.450;11.052;2023-01-26T11:08:36;98520.34;;;0.77;100.00
14273;BME280;7220;49.450;11.052;2023-01-26T11:12:37;98518.59;;;0.80;100.00
14273;BME280;7220;49.450;11.052;2023-01-26T11:16:37;98509.00;;;0.78;100.00
14273;BME280;7220;49.450;11.052;2023-01-26T11:29:25;98492.38;;;0.83;100.00
14273;BME280;7220;49.450;11.052;2023-01-26T11:37:47;98480.97;;;0.88;100.00
14273;BME280;7220;49.450;11.052;2023-01-26T11:42:00;98482.72;;;0.89;100.00
14273;BME280;7220;49.450;11.052;2023-01-26T11:46:26;98488.00;;;0.82;100.00
14273;BME280;7220;49.450;11.052;2023-01-26T11:50:38;98467.94;;;0.84;100.00
14273;BME280;7220;49.450;11.052;2023-01-26T11:58:59;98453.22;;;0.73;100.00
14273;BME280;7220;49.450;11.052;2023-01-26T12:03:03;98450.56;;;0.78;100.00
14273;BME280;7220;49.450;11.052;2023-01-26T12:07:14;98469.75;;;0.78;100.00
14273;BME280;7220;49.450;11.052;2023-01-26T12:11:29;98460.13;;;0.79;100.00
14273;BME280;7220;49.450;11.052;2023-01-26T12:15:36;98462.84;;;0.71;100.00
14273;BME280;7220;49.450;11.052;2023-01-26T12:19:46;98450.56;;;0.76;100.00
14273;BME280;7220;49.450;11.052;2023-01-26T12:24:01;98442.69;;;0.78;100.00
14273;BME280;7220;49.450;11.052;2023-01-26T12:32:14;98447.13;;;0.73;100.00
14273;BME280;7220;49.450;11.052;2023-01-26T12:40:39;98428.78;;;0.76;100.00
14273;BME280;7220;49.450;11.052;2023-01-26T12:44:51;98429.63;;;0.80;100.00
14273;BME280;7220;49.450;11.052;2023-01-26T12:49:09;98413.84;;;0.86;100.00
14273;BME280;7220;49.450;11.052;2023-01-26T12:53:27;98419.91;;;0.89;100.00
14273;BME280;7220;49.450;11.052;2023-01-26T12:57:39;98413.06;;;0.77;100.00
14273;BME280;7220;49.450;11.052;2023-01-26T13:01:43;98410.47;;;0.74;100.00
14273;BME280;7220;49.450;11.052;2023-01-26T13:06:17;98404.41;;;0.71;100.00
14273;BME280;7220;49.450;11.052;2023-01-26T13:10:23;98407.88;;;0.76;100.00
14273;BME280;7220;49.450;11.052;2023-01-26T13:18:55;98400.81;;;0.81;100.00
14273;BME280;7220;49.450;11.052;2023-01-26T13:22:56;98399.84;;;0.90;100.00
14273;BME280;7220;49.450;11.052;2023-01-26T13:26:57;98405.03;;;0.96;100.00
14273;BME280;7220;49.450;11.052;2023-01-26T13:31:05;98406.72;;;0.97;99.98
14273;BME280;7220;49.450;11.052;2023-01-26T13:35:08;98407.69;;;0.91;100.00
14273;BME280;7220;49.450;11.052;2023-01-26T13:43:40;98402.50;;;0.85;99.98
14273;BME280;7220;49.450;11.052;2023-01-26T13:47:45;98400.78;;;0.84;99.74
14273;BME280;7220;49.450;11.052;2023-01-26T13:51:48;98402.56;;;0.79;100.00
14273;BME280;7220;49.450;11.052;2023-01-26T13:55:51;98396.44;;;0.82;100.00
14273;BME280;7220;49.450;11.052;2023-01-26T13:59:57;98396.53;;;0.72;100.00
14273;BME280;7220;49.450;11.052;2023-01-26T14:04:02;98397.50;;;0.65;100.00
14273;BME280;7220;49.450;11.052;2023-01-26T14:08:03;98400.16;;;0.62;100.00
14273;BME280;7220;49.450;11.052;2023-01-26T14:12:05;98407.19;;;0.55;100.00
14273;BME280;7220;49.450;11.052;2023-01-26T14:16:06;98410.06;;;0.27;100.00
14273;BME280;7220;49.450;11.052;2023-01-26T14:20:28;98402.91;;;0.45;100.00
14273;BME280;7220;49.450;11.052;2023-01-26T14:24:35;98419.59;;;0.35;100.00
14273;BME280;7220;49.450;11.052;2023-01-26T14:28:41;98415.81;;;0.63;100.00
14273;BME280;7220;49.450;11.052;2023-01-26T14:32:42;98407.06;;;0.68;100.00
14273;BME280;7220;49.450;11.052;2023-01-26T14:36:42;98409.63;;;0.72;100.00
14273;BME280;7220;49.450;11.052;2023-01-26T14:40:56;98418.34;;;0.76;100.00
14273;BME280;7220;49.450;11.052;2023-01-26T14:44:57;98424.41;;;0.80;100.00
14273;BME280;7220;49.450;11.052;2023-01-26T14:49:06;98438.28;;;0.85;100.00
14273;BME280;7220;49.450;11.052;2023-01-26T14:53:16;98428.84;;;0.68;100.00
14273;BME280;7220;49.450;11.052;2023-01-26T14:57:24;98435.03;;;0.61;100.00
14273;BME280;7220;49.450;11.052;2023-01-26T15:01:26;98437.72;;;0.52;100.00
14273;BME280;7220;49.450;11.052;2023-01-26T15:05:35;98443.00;;;0.50;100.00
14273;BME280;7220;49.450;11.052;2023-01-26T15:09:36;98433.44;;;0.44;100.00
14273;BME280;7220;49.450;11.052;2023-01-26T15:13:39;98440.44;;;0.42;100.00
14273;BME280;7220;49.450;11.052;2023-01-26T15:17:41;98427.28;;;0.49;100.00
14273;BME280;7220;49.450;11.052;2023-01-26T15:21:42;98432.47;;;0.53;100.00
14273;BME280;7220;49.450;11.052;2023-01-26T15:25:43;98433.38;;;0.54;100.00
14273;BME280;7220;49.450;11.052;2023-01-26T15:29:43;98439.44;;;0.57;100.00
14273;BME280;7220;49.450;11.052;2023-01-26T15:33:52;98421.09;;;0.59;100.00
14273;BME280;7220;49.450;11.052;2023-01-26T15:38:04;98443.78;;;0.57;100.00
14273;BME280;7220;49.450;11.052;2023-01-26T15:42:12;98441.16;;;0.58;100.00
14273;BME280;7220;49.450;11.052;2023-01-26T15:46:12;98439.50;;;0.48;100.00
14273;BME280;7220;49.450;11.052;2023-01-26T15:50:13;98445.59;;;0.50;100.00
14273;BME280;7220;49.450;11.052;2023-01-26T15:54:13;98445.59;;;0.49;100.00
14273;BME280;7220;49.450;11.052;2023-01-26T15:58:14;98448.28;;;0.42;100.00
14273;BME280;7220;49.450;11.052;2023-01-26T16:02:18;98449.22;;;0.35;100.00
14273;BME280;7220;49.450;11.052;2023-01-26T16:06:27;98444.03;;;0.32;100.00
14273;BME280;7220;49.450;11.052;2023-01-26T16:10:28;98446.47;;;0.51;100.00
14273;BME280;7220;49.450;11.052;2023-01-26T16:14:28;98449.91;;;0.56;100.00
14273;BME280;7220;49.450;11.052;2023-01-26T16:18:28;98447.31;;;0.53;100.00
14273;BME280;7220;49.450;11.052;2023-01-26T16:22:32;98462.16;;;0.49;100.00
14273;BME280;7220;49.450;11.052;2023-01-26T16:26:33;98462.16;;;0.49;100.00
14273;BME280;7220;49.450;11.052;2023-01-26T16:30:33;98466.50;;;0.49;100.00
14273;BME280;7220;49.450;11.052;2023-01-26T16:34:33;98453.44;;;0.52;100.00
14273;BME280;7220;49.450;11.052;2023-01-26T16:38:33;98454.28;;;0.52;100.00
14273;BME280;7220;49.450;11.052;2023-01-26T16:42:38;98452.63;;;0.40;100.00
14273;BME280;7220;49.450;11.052;2023-01-26T16:46:39;98449.16;;;0.40;100.00
14273;BME280;7220;49.450;11.052;2023-01-26T16:50:40;98450.00;;;0.43;100.00
14273;BME280;7220;49.450;11.052;2023-01-26T16:54:40;98443.03;;;0.42;100.00
14273;BME280;7220;49.450;11.052;2023-01-26T16:58:41;98435.00;;;0.64;100.00
14273;BME280;7220;49.450;11.052;2023-01-26T17:02:42;98442.03;;;0.59;100.00
14273;BME280;7220;49.450;11.052;2023-01-26T17:06:43;98446.25;;;0.71;100.00
14273;BME280;7220;49.450;11.052;2023-01-26T17:10:43;98450.66;;;0.67;100.00
14273;BME280;7220;49.450;11.052;2023-01-26T17:14:44;98446.44;;;0.54;100.00
14273;BME280;7220;49.450;11.052;2023-01-26T17:18:45;98443.81;;;0.54;100.00
14273;BME280;7220;49.450;11.052;2023-01-26T17:22:47;98443.81;;;0.55;100.00
14273;BME280;7220;49.450;11.052;2023-01-26T17:26:48;98456.06;;;0.47;100.00
14273;BME280;7220;49.450;11.052;2023-01-26T17:30:48;98437.72;;;0.52;100.00
14273;BME280;7220;49.450;11.052;2023-01-26T17:34:49;98450.69;;;0.66;100.00
14273;BME280;7220;49.450;11.052;2023-01-26T17:38:49;98447.19;;;0.65;100.00
14273;BME280;7220;49.450;11.052;2023-01-26T17:42:49;98459.44;;;0.60;100.00
14273;BME280;7220;49.450;11.052;2023-01-26T17:46:50;98462.09;;;0.58;100.00
14273;BME280;7220;49.450;11.052;2023-01-26T17:50:50;98449.94;;;0.51;100.00
14273;BME280;7220;49.450;11.052;2023-01-26T17:54:50;98450.81;;;0.49;100.00
14273;BME280;7220;49.450;11.052;2023-01-26T17:58:52;98448.19;;;0.52;100.00
14273;BME280;7220;49.450;11.052;2023-01-26T18:02:53;98438.59;;;0.54;100.00
14273;BME280;7220;49.450;11.052;2023-01-26T18:06:54;98460.38;;;0.53;100.00
14273;BME280;7220;49.450;11.052;2023-01-26T18:10:59;98447.31;;;0.53;100.00
14273;BME280;7220;49.450;11.052;2023-01-26T18:15:00;98454.22;;;0.57;100.00
14273;BME280;7220;49.450;11.052;2023-01-26T18:19:00;98457.72;;;0.59;100.00
14273;BME280;7220;49.450;11.052;2023-01-26T18:23:03;98447.22;;;0.62;100.00
14273;BME280;7220;49.450;11.052;2023-01-26T18:27:03;98449.84;;;0.60;100.00
14273;BME280;7220;49.450;11.052;2023-01-26T18:31:09;98459.47;;;0.57;100.00
14273;BME280;7220;49.450;11.052;2023-01-26T18:35:09;98457.78;;;0.53;100.00
14273;BME280;7220;49.450;11.052;2023-01-26T18:39:12;98460.38;;;0.54;100.00
14273;BME280;7220;49.450;11.052;2023-01-26T18:43:13;98451.66;;;0.55;100.00
14273;BME280;7220;49.450;11.052;2023-01-26T18:47:13;98443.75;;;0.60;100.00
14273;BME280;7220;49.450;11.052;2023-01-26T18:51:13;98451.56;;;0.65;100.00
14273;BME280;7220;49.450;11.052;2023-01-26T18:55:14;98440.25;;;0.64;100.00
14273;BME280;7220;49.450;11.052;2023-01-26T18:59:15;98445.63;;;0.45;100.00
14273;BME280;7220;49.450;11.052;2023-01-26T19:03:16;98443.91;;;0.44;100.00
14273;BME280;7220;49.450;11.052;2023-01-26T19:07:17;98439.56;;;0.43;100.00
14273;BME280;7220;49.450;11.052;2023-01-26T19:11:17;98463.16;;;0.36;100.00
14273;BME280;7220;49.450;11.052;2023-01-26T19:15:17;98450.88;;;0.42;100.00
14273;BME280;7220;49.450;11.052;2023-01-26T19:19:18;98457.00;;;0.40;100.00
14273;BME280;7220;49.450;11.052;2023-01-26T19:23:18;98457.00;;;0.41;100.00
14273;BME280;7220;49.450;11.052;2023-01-26T19:27:18;98451.00;;;0.30;100.00
14273;BME280;7220;49.450;11.052;2023-01-26T19:31:19;98454.44;;;0.35;100.00
14273;BME280;7220;49.450;11.052;2023-01-26T19:35:20;98450.91;;;0.38;100.00
14273;BME280;7220;49.450;11.052;2023-01-26T19:39:20;98448.44;;;0.24;100.00
14273;BME280;7220;49.450;11.052;2023-01-26T19:43:21;98447.41;;;0.40;100.00
14273;BME280;7220;49.450;11.052;2023-01-26T19:47:21;98450.88;;;0.42;100.00
14273;BME280;7220;49.450;11.052;2023-01-26T19:51:24;98457.97;;;0.28;100.00
14273;BME280;7220;49.450;11.052;2023-01-26T19:55:25;98457.97;;;0.28;100.00
14273;BME280;7220;49.450;11.052;2023-01-26T19:59:25;98458.03;;;0.22;100.00
14273;BME280;7220;49.450;11.052;2023-01-26T20:03:26;98452.81;;;0.22;100.00
14273;BME280;7220;49.450;11.052;2023-01-26T20:07:27;98467.66;;;0.18;100.00
14273;BME280;7220;49.450;11.052;2023-01-26T20:11:27;98456.31;;;0.18;100.00
14273;BME280;7220;49.450;11.052;2023-01-26T20:15:28;98448.53;;;0.11;100.00
14273;BME280;7220;49.450;11.052;2023-01-26T20:19:29;98459.91;;;0.07;100.00
14273;BME280;7220;49.450;11.052;2023-01-26T20:23:30;98458.09;;;0.12;100.00
14273;BME280;7220;49.450;11.052;2023-01-26T20:27:31;98463.34;;;0.11;100.00
14273;BME280;7220;49.450;11.052;2023-01-26T20:31:32;98466.88;;;0.02;100.00
14273;BME280;7220;49.450;11.052;2023-01-26T20:35:32;98465.19;;;-0.02;100.00
14273;BME280;7220;49.450;11.052;2023-01-26T20:39:33;98462.56;;;-0.04;100.00
14273;BME280;7220;49.450;11.052;2023-01-26T20:43:34;98469.53;;;-0.01;100.00
14273;BME280;7220;49.450;11.052;2023-01-26T20:47:35;98466.97;;;-0.10;100.00
14273;BME280;7220;49.450;11.052;2023-01-26T20:51:38;98473.88;;;0.00;100.00
14273;BME280;7220;49.450;11.052;2023-01-26T20:55:41;98476.38;;;0.15;100.00
14273;BME280;7220;49.450;11.052;2023-01-26T20:59:41;98466.81;;;0.14;100.00
14273;BME280;7220;49.450;11.052;2023-01-26T21:03:42;98467.59;;;0.24;100.00
14273;BME280;7220;49.450;11.052;2023-01-26T21:07:43;98458.06;;;0.19;100.00
14273;BME280;7220;49.450;11.052;2023-01-26T21:11:43;98461.53;;;0.18;100.00
14273;BME280;7220;49.450;11.052;2023-01-26T21:15:43;98464.28;;;0.04;100.00
14273;BME280;7220;49.450;11.052;2023-01-26T21:19:44;98465.13;;;0.04;100.00
14273;BME280;7220;49.450;11.052;2023-01-26T21:23:44;98468.56;;;0.09;100.00
14273;BME280;7220;49.450;11.052;2023-01-26T21:27:45;98461.59;;;0.11;100.00
14273;BME280;7220;49.450;11.052;2023-01-26T21:31:45;98460.72;;;0.09;100.00
14273;BME280;7220;49.450;11.052;2023-01-26T21:35:54;98460.81;;;0.00;100.00
14273;BME280;7220;49.450;11.052;2023-01-26T21:39:54;98467.69;;;0.10;100.00
14273;BME280;7220;49.450;11.052;2023-01-26T21:43:59;98464.25;;;0.02;100.00
14273;BME280;7220;49.450;11.052;2023-01-26T21:48:00;98461.59;;;0.14;100.00
14273;BME280;7220;49.450;11.052;2023-01-26T21:52:19;98448.56;;;0.05;100.00
14273;BME280;7220;49.450;11.052;2023-01-26T21:56:38;98458.28;;;-0.14;100.00
14273;BME280;7220;49.450;11.052;2023-01-26T22:00:38;98433.94;;;-0.24;100.00
14273;BME280;7220;49.450;11.052;2023-01-26T22:04:38;98444.50;;;-0.36;100.00